Time,TemperatureF,DewpointF,PressureIn,WindDirection,WindDirectionDegrees,WindSpeedMPH,WindSpeedGustMPH,Humidity,HourlyPrecipIn,Conditions,Clouds,dailyrainin,SoftwareType,DateUTC
2013-08-03 00:02:00,54.0,40.0,29.75,South,190,0.0,0.0,59,0.00,,,0.00,,2013-08-03 06:02:00,
2013-08-03 00:12:00,54.0,40.0,29.75,South,190,0.0,0.0,59,0.00,,,0.00,,2013-08-03 06:12:00,
2013-08-03 00:22:00,54.0,40.0,29.76,South,190,0.0,0.0,60,0.00,,,0.00,,2013-08-03 06:22:00,
2013-08-03 00:32:00,53.0,40.0,29.76,South,190,0.0,0.0,61,0.00,,,0.00,,2013-08-03 06:32:00,
2013-08-03 00:42:00,53.0,40.0,29.76,South,190,0.0,0.0,61,0.00,,,0.00,,2013-08-03 06:42:00,
2013-08-03 00:52:00,53.0,40.0,29.76,South,190,0.0,0.0,62,0.00,,,0.00,,2013-08-03 06:52:00,
2013-08-03 01:02:00,52.0,40.0,29.76,SW,225,0.0,1.0,64,0.00,,,0.00,,2013-08-03 07:02:00,
2013-08-03 01:12:00,52.0,40.0,29.76,SW,225,0.0,1.0,64,0.00,,,0.00,,2013-08-03 07:12:00,
2013-08-03 01:22:00,53.0,41.0,29.76,SW,225,0.0,0.0,64,0.00,,,0.00,,2013-08-03 07:22:00,
2013-08-03 01:32:00,53.0,41.0,29.76,SW,225,0.0,0.0,64,0.00,,,0.00,,2013-08-03 07:32:00,
2013-08-03 01:43:00,53.0,41.0,29.76,SW,225,0.0,0.0,64,0.00,,,0.00,,2013-08-03 07:43:00,
2013-08-03 01:53:00,52.0,41.0,29.75,South,180,0.0,0.0,65,0.00,,,0.00,,2013-08-03 07:53:00,
2013-08-03 02:02:00,52.0,41.0,29.75,South,180,0.0,1.0,65,0.00,,,0.00,,2013-08-03 08:02:00,
2013-08-03 02:12:00,52.0,41.0,29.75,South,180,0.0,1.0,65,0.00,,,0.00,,2013-08-03 08:12:00,
2013-08-03 02:22:00,53.0,42.0,29.74,South,180,0.0,2.0,65,0.00,,,0.00,,2013-08-03 08:22:00,
2013-08-03 02:32:00,53.0,41.0,29.73,South,180,0.0,0.0,64,0.00,,,0.00,,2013-08-03 08:32:00,
2013-08-03 02:43:00,53.0,41.0,29.73,South,180,0.0,0.0,64,0.00,,,0.00,,2013-08-03 08:43:00,
2013-08-03 02:52:00,53.0,42.0,29.73,South,180,0.0,0.0,65,0.00,,,0.00,,2013-08-03 08:52:00,
2013-08-03 03:02:00,52.0,41.0,29.73,South,180,0.0,0.0,67,0.00,,,0.00,,2013-08-03 09:02:00,
2013-08-03 03:12:00,52.0,41.0,29.73,South,180,0.0,0.0,67,0.00,,,0.00,,2013-08-03 09:12:00,
2013-08-03 03:22:00,51.0,41.0,29.74,South,180,0.0,0.0,68,0.00,,,0.00,,2013-08-03 09:22:00,
2013-08-03 03:32:00,50.0,40.0,29.73,South,180,0.0,0.0,69,0.00,,,0.00,,2013-08-03 09:32:00,
2013-08-03 03:43:00,50.0,40.0,29.73,South,180,0.0,0.0,69,0.00,,,0.00,,2013-08-03 09:43:00,
2013-08-03 03:53:00,50.0,41.0,29.73,South,180,0.0,0.0,70,0.00,,,0.00,,2013-08-03 09:53:00,
2013-08-03 04:02:00,50.0,41.0,29.73,South,180,0.0,0.0,70,0.00,,,0.00,,2013-08-03 10:02:00,
2013-08-03 04:12:00,50.0,41.0,29.73,South,180,0.0,0.0,70,0.00,,,0.00,,2013-08-03 10:12:00,
2013-08-03 04:22:00,49.0,40.0,29.73,SSW,197,0.0,2.0,71,0.00,,,0.00,,2013-08-03 10:22:00,
2013-08-03 04:32:00,49.0,41.0,29.74,SW,218,0.0,1.0,73,0.00,,,0.00,,2013-08-03 10:32:00,
2013-08-03 04:42:00,49.0,41.0,29.74,SW,218,0.0,1.0,73,0.00,,,0.00,,2013-08-03 10:42:00,
2013-08-03 04:53:00,49.0,41.0,29.74,SW,218,0.0,0.0,73,0.00,,,0.00,,2013-08-03 10:53:00,
2013-08-03 05:02:00,49.0,40.0,29.75,SW,218,0.0,1.0,72,0.00,,,0.00,,2013-08-03 11:02:00,
2013-08-03 05:12:00,49.0,40.0,29.75,SW,218,0.0,1.0,72,0.00,,,0.00,,2013-08-03 11:12:00,
2013-08-03 05:22:00,50.0,41.0,29.75,SW,218,0.0,0.0,70,0.00,,,0.00,,2013-08-03 11:22:00,
2013-08-03 05:32:00,51.0,41.0,29.74,SW,218,0.0,0.0,69,0.00,,,0.00,,2013-08-03 11:32:00,
2013-08-03 05:43:00,51.0,41.0,29.74,SW,218,0.0,0.0,69,0.00,,,0.00,,2013-08-03 11:43:00,
2013-08-03 05:53:00,50.0,40.0,29.75,SW,218,0.0,0.0,69,0.00,,,0.00,,2013-08-03 11:53:00,
2013-08-03 06:02:00,50.0,40.0,29.75,SW,218,0.0,0.0,69,0.00,,,0.00,,2013-08-03 12:02:00,
2013-08-03 06:12:00,50.0,40.0,29.75,SW,218,0.0,0.0,69,0.00,,,0.00,,2013-08-03 12:12:00,
2013-08-03 06:22:00,48.0,40.0,29.77,SW,218,0.0,0.0,74,0.00,,,0.00,,2013-08-03 12:22:00,
2013-08-03 06:43:00,47.0,40.0,29.78,SW,218,0.0,1.0,77,0.00,,,0.00,,2013-08-03 12:43:00,
2013-08-03 06:53:00,47.0,40.0,29.78,South,177,0.0,0.0,77,0.00,,,0.00,,2013-08-03 12:53:00,
2013-08-03 07:02:00,47.0,40.0,29.78,South,177,0.0,0.0,77,0.00,,,0.00,,2013-08-03 13:02:00,
2013-08-03 07:12:00,47.0,40.0,29.78,South,177,0.0,0.0,77,0.00,,,0.00,,2013-08-03 13:12:00,
2013-08-03 07:22:00,48.0,41.0,29.77,South,177,0.0,1.0,77,0.00,,,0.00,,2013-08-03 13:22:00,
2013-08-03 07:32:00,50.0,42.0,29.78,SE,142,0.0,3.0,74,0.00,,,0.00,,2013-08-03 13:32:00,
2013-08-03 07:43:00,50.0,42.0,29.78,SE,142,0.0,3.0,74,0.00,,,0.00,,2013-08-03 13:43:00,
2013-08-03 07:52:00,49.0,42.0,29.78,South,176,0.0,2.0,76,0.00,,,0.00,,2013-08-03 13:52:00,
2013-08-03 08:02:00,49.0,41.0,29.78,South,171,0.0,3.0,75,0.00,,,0.00,,2013-08-03 14:02:00,
2013-08-03 08:12:00,49.0,41.0,29.78,South,171,0.0,3.0,75,0.00,,,0.00,,2013-08-03 14:12:00,
2013-08-03 08:22:00,49.0,41.0,29.78,South,171,0.0,3.0,75,0.00,,,0.00,,2013-08-03 14:22:00,
2013-08-03 08:33:00,54.0,44.0,29.79,SE,142,0.0,3.0,69,0.00,,,0.00,,2013-08-03 14:33:00,
2013-08-03 08:42:00,54.0,44.0,29.79,SE,142,0.0,3.0,69,0.00,,,0.00,,2013-08-03 14:42:00,
2013-08-03 08:52:00,57.0,45.0,29.79,SE,142,0.0,3.0,63,0.00,,,0.00,,2013-08-03 14:52:00,
2013-08-03 09:02:00,60.0,46.0,29.78,SE,142,0.0,2.0,59,0.00,,,0.00,,2013-08-03 15:02:00,
2013-08-03 09:12:00,60.0,46.0,29.78,SE,142,0.0,2.0,59,0.00,,,0.00,,2013-08-03 15:12:00,
2013-08-03 09:23:00,62.0,46.0,29.77,East,101,0.0,5.0,55,0.00,,,0.00,,2013-08-03 15:23:00,
2013-08-03 09:32:00,64.0,47.0,29.77,ESE,117,1.0,3.0,54,0.00,,,0.00,,2013-08-03 15:32:00,
2013-08-03 09:43:00,64.0,47.0,29.77,ESE,117,1.0,3.0,54,0.00,,,0.00,,2013-08-03 15:43:00,
2013-08-03 09:53:00,65.0,46.0,29.76,ESE,117,0.0,4.0,50,0.00,,,0.00,,2013-08-03 15:53:00,
2013-08-03 10:02:00,67.0,46.0,29.76,ESE,103,0.0,3.0,47,0.00,,,0.00,,2013-08-03 16:02:00,
2013-08-03 10:12:00,67.0,46.0,29.76,ESE,103,0.0,3.0,47,0.00,,,0.00,,2013-08-03 16:12:00,
2013-08-03 10:23:00,68.0,44.0,29.76,ESE,106,2.0,5.0,42,0.00,,,0.00,,2013-08-03 16:23:00,
2013-08-03 10:33:00,69.0,44.0,29.75,ESE,108,0.0,4.0,40,0.00,,,0.00,,2013-08-03 16:33:00,
2013-08-03 10:43:00,69.0,44.0,29.75,ESE,108,0.0,4.0,40,0.00,,,0.00,,2013-08-03 16:43:00,
2013-08-03 10:53:00,70.0,42.0,29.75,NNE,22,0.0,4.0,36,0.00,,,0.00,,2013-08-03 16:53:00,
2013-08-03 11:02:00,70.0,42.0,29.75,NNE,22,0.0,4.0,36,0.00,,,0.00,,2013-08-03 17:02:00,
2013-08-03 11:12:00,70.0,42.0,29.75,NNE,22,0.0,4.0,36,0.00,,,0.00,,2013-08-03 17:12:00,
2013-08-03 11:22:00,73.0,43.0,29.75,SW,229,0.0,5.0,34,0.00,,,0.00,,2013-08-03 17:22:00,
2013-08-03 11:32:00,74.0,42.0,29.74,NNW,331,0.0,6.0,32,0.00,,,0.00,,2013-08-03 17:32:00,
2013-08-03 11:43:00,74.0,42.0,29.74,NNW,331,0.0,6.0,32,0.00,,,0.00,,2013-08-03 17:43:00,
2013-08-03 11:52:00,72.0,43.0,29.74,ENE,64,0.0,7.0,35,0.00,,,0.00,,2013-08-03 17:52:00,
2013-08-03 12:02:00,71.0,45.0,29.74,SE,126,0.0,3.0,39,0.00,,,0.00,,2013-08-03 18:02:00,
2013-08-03 12:12:00,71.0,45.0,29.74,SE,126,0.0,3.0,39,0.00,,,0.00,,2013-08-03 18:12:00,
2013-08-03 12:22:00,74.0,41.0,29.73,NNE,24,1.0,6.0,30,0.00,,,0.00,,2013-08-03 18:22:00,
2013-08-03 12:32:00,74.0,41.0,29.73,NNE,24,1.0,6.0,30,0.00,,,0.00,,2013-08-03 18:32:00,
2013-08-03 12:43:00,75.0,36.0,29.73,NE,53,0.0,5.0,24,0.00,,,0.00,,2013-08-03 18:43:00,
2013-08-03 12:53:00,75.0,40.0,29.72,NNE,30,1.0,8.0,28,0.00,,,0.00,,2013-08-03 18:53:00,
2013-08-03 13:02:00,75.0,40.0,29.72,NNE,30,1.0,8.0,28,0.00,,,0.00,,2013-08-03 19:02:00,
2013-08-03 13:12:00,73.0,40.0,29.72,ESE,105,0.0,3.0,30,0.00,,,0.00,,2013-08-03 19:12:00,
2013-08-03 13:22:00,71.0,40.0,29.72,SW,232,2.0,9.0,33,0.00,,,0.00,,2013-08-03 19:22:00,
2013-08-03 13:32:00,70.0,41.0,29.72,West,262,0.0,5.0,35,0.00,,,0.00,,2013-08-03 19:32:00,
2013-08-03 13:43:00,70.0,41.0,29.72,West,262,0.0,5.0,35,0.00,,,0.00,,2013-08-03 19:43:00,
2013-08-03 13:52:00,70.0,40.0,29.72,NNE,22,0.0,4.0,33,0.00,,,0.00,,2013-08-03 19:52:00,
2013-08-03 14:02:00,69.0,42.0,29.71,WNW,291,1.0,6.0,37,0.00,,,0.00,,2013-08-03 20:02:00,
2013-08-03 14:12:00,69.0,42.0,29.71,WNW,291,1.0,6.0,37,0.00,,,0.00,,2013-08-03 20:12:00,
2013-08-03 14:22:00,69.0,42.0,29.70,West,273,4.0,9.0,38,0.00,,,0.00,,2013-08-03 20:22:00,
2013-08-03 14:32:00,69.0,38.0,29.69,WNW,291,2.0,12.0,32,0.00,,,0.00,,2013-08-03 20:32:00,
2013-08-03 14:42:00,69.0,38.0,29.69,WNW,291,2.0,12.0,32,0.00,,,0.00,,2013-08-03 20:42:00,
2013-08-03 14:52:00,70.0,42.0,29.69,NNE,21,0.0,4.0,36,0.00,,,0.00,,2013-08-03 20:52:00,
2013-08-03 15:02:00,71.0,43.0,29.68,East,91,0.0,5.0,37,0.00,,,0.00,,2013-08-03 21:02:00,
2013-08-03 15:12:00,71.0,43.0,29.68,East,91,0.0,5.0,37,0.00,,,0.00,,2013-08-03 21:12:00,
2013-08-03 15:22:00,72.0,44.0,29.68,SE,135,0.0,4.0,36,0.00,,,0.00,,2013-08-03 21:22:00,
2013-08-03 15:32:00,71.0,43.0,29.68,NNW,338,2.0,7.0,36,0.00,,,0.00,,2013-08-03 21:32:00,
2013-08-03 15:42:00,71.0,43.0,29.68,NNW,338,2.0,7.0,36,0.00,,,0.00,,2013-08-03 21:42:00,
2013-08-03 15:52:00,70.0,38.0,29.68,NNW,329,0.0,4.0,31,0.00,,,0.00,,2013-08-03 21:52:00,
2013-08-03 16:02:00,71.0,36.0,29.70,West,281,1.0,6.0,28,0.00,,,0.00,,2013-08-03 22:02:00,
2013-08-03 16:12:00,71.0,36.0,29.70,West,281,1.0,6.0,28,0.00,,,0.00,,2013-08-03 22:12:00,
2013-08-03 16:22:00,71.0,36.0,29.70,West,281,1.0,6.0,28,0.00,,,0.00,,2013-08-03 22:22:00,
2013-08-03 16:33:00,68.0,44.0,29.70,ESE,120,0.0,13.0,42,0.00,,,0.00,,2013-08-03 22:33:00,
2013-08-03 16:42:00,68.0,44.0,29.70,ESE,120,0.0,13.0,42,0.00,,,0.00,,2013-08-03 22:42:00,
2013-08-03 16:52:00,64.0,43.0,29.71,ENE,74,1.0,9.0,47,0.00,,,0.00,,2013-08-03 22:52:00,
2013-08-03 17:02:00,62.0,44.0,29.73,NE,34,0.0,7.0,52,0.00,,,0.00,,2013-08-03 23:02:00,
2013-08-03 17:12:00,62.0,44.0,29.73,NE,34,0.0,7.0,52,0.00,,,0.00,,2013-08-03 23:12:00,
2013-08-03 17:22:00,60.0,45.0,29.75,West,281,1.0,6.0,58,0.00,,,0.00,,2013-08-03 23:22:00,
2013-08-03 17:32:00,60.0,45.0,29.75,West,281,1.0,6.0,58,0.00,,,0.00,,2013-08-03 23:32:00,
2013-08-03 17:42:00,57.0,45.0,29.75,NE,40,2.0,11.0,64,0.00,,,0.00,,2013-08-03 23:42:00,
2013-08-03 17:52:00,57.0,46.0,29.75,NNE,20,0.0,8.0,67,0.00,,,0.00,,2013-08-03 23:52:00,
2013-08-03 18:02:00,57.0,47.0,29.76,ESE,114,1.0,4.0,70,0.00,,,0.00,,2013-08-04 00:02:00,
2013-08-03 18:12:00,57.0,47.0,29.76,ESE,114,1.0,4.0,70,0.00,,,0.00,,2013-08-04 00:12:00,
2013-08-03 18:22:00,56.0,47.0,29.76,NNE,22,0.0,5.0,72,0.00,,,0.00,,2013-08-04 00:22:00,
2013-08-03 18:32:00,56.0,47.0,29.76,NNE,27,0.0,3.0,71,0.00,,,0.00,,2013-08-04 00:32:00,
2013-08-03 18:42:00,56.0,47.0,29.76,NNE,27,0.0,3.0,71,0.00,,,0.00,,2013-08-04 00:42:00,
2013-08-03 18:53:00,56.0,46.0,29.76,NNE,13,0.0,5.0,69,0.00,,,0.00,,2013-08-04 00:53:00,
2013-08-03 19:02:00,56.0,46.0,29.76,NNE,13,0.0,5.0,69,0.00,,,0.00,,2013-08-04 01:02:00,
2013-08-03 19:12:00,57.0,47.0,29.75,NNE,18,0.0,3.0,69,0.00,,,0.00,,2013-08-04 01:12:00,
2013-08-03 19:22:00,57.0,47.0,29.75,NNE,18,0.0,3.0,69,0.00,,,0.00,,2013-08-04 01:22:00,
2013-08-03 19:32:00,57.0,47.0,29.75,NNE,18,0.0,3.0,69,0.00,,,0.00,,2013-08-04 01:32:00,
2013-08-03 19:42:00,56.0,46.0,29.73,NNE,18,0.0,0.0,69,0.00,,,0.00,,2013-08-04 01:42:00,
2013-08-03 19:53:00,55.0,46.0,29.74,North,360,0.0,1.0,71,0.00,,,0.00,,2013-08-04 01:53:00,
2013-08-03 20:02:00,55.0,46.0,29.74,North,360,0.0,1.0,71,0.00,,,0.00,,2013-08-04 02:02:00,
2013-08-03 20:12:00,55.0,46.0,29.74,North,360,0.0,1.0,71,0.00,,,0.00,,2013-08-04 02:12:00,
2013-08-03 20:22:00,55.0,46.0,29.74,North,360,0.0,1.0,71,0.00,,,0.00,,2013-08-04 02:22:00,
2013-08-03 20:32:00,54.0,45.0,29.75,North,360,0.0,0.0,72,0.00,,,0.00,,2013-08-04 02:32:00,
2013-08-03 20:42:00,54.0,45.0,29.75,North,360,0.0,0.0,72,0.00,,,0.00,,2013-08-04 02:42:00,
2013-08-03 20:52:00,53.0,45.0,29.78,North,360,0.0,2.0,75,0.00,,,0.00,,2013-08-04 02:52:00,
2013-08-03 21:02:00,53.0,45.0,29.78,North,360,0.0,2.0,75,0.00,,,0.00,,2013-08-04 03:02:00,
2013-08-03 21:22:00,52.0,44.0,29.80,North,360,0.0,1.0,75,0.00,,,0.00,,2013-08-04 03:22:00,
2013-08-03 21:32:00,52.0,44.0,29.80,North,360,0.0,1.0,75,0.00,,,0.00,,2013-08-04 03:32:00,
2013-08-03 21:42:00,53.0,45.0,29.80,North,360,0.0,0.0,74,0.00,,,0.00,,2013-08-04 03:42:00,
2013-08-03 21:52:00,54.0,44.0,29.82,North,360,0.0,0.0,70,0.00,,,0.00,,2013-08-04 03:52:00,
2013-08-03 22:02:00,54.0,44.0,29.82,North,360,0.0,0.0,70,0.00,,,0.00,,2013-08-04 04:02:00,
2013-08-03 22:12:00,54.0,44.0,29.82,North,360,0.0,0.0,70,0.00,,,0.00,,2013-08-04 04:12:00,
2013-08-03 22:22:00,54.0,44.0,29.82,North,360,0.0,0.0,70,0.00,,,0.00,,2013-08-04 04:22:00,
2013-08-03 22:32:00,54.0,44.0,29.82,North,360,0.0,0.0,70,0.00,,,0.00,,2013-08-04 04:32:00,
2013-08-03 23:22:00,53.0,43.0,29.84,NNW,339,0.0,1.0,70,0.00,,,0.00,,2013-08-04 05:22:00,
2013-08-03 23:32:00,53.0,43.0,29.84,NNW,339,0.0,1.0,70,0.00,,,0.00,,2013-08-04 05:32:00,
2013-08-03 23:42:00,53.0,43.0,29.84,NNW,339,0.0,1.0,70,0.00,,,0.00,,2013-08-04 05:42:00,
2013-08-03 23:52:00,53.0,43.0,29.84,NNW,339,0.0,1.0,70,0.00,,,0.00,,2013-08-04 05:52:00,